createdAt,value
2022-09-06T00:00:58.146Z,47.83
2022-09-06T00:05:51.805Z,48.20
2022-09-06T00:10:44.899Z,47.84
2022-09-06T00:15:38.092Z,47.74
2022-09-06T00:20:32.520Z,48.01
2022-09-06T00:25:26.721Z,47.75
2022-09-06T00:30:20.275Z,47.76
2022-09-06T00:35:14.434Z,48.06
2022-09-06T00:40:11.011Z,47.73
2022-09-06T00:45:08.323Z,47.83
2022-09-06T00:50:04.054Z,47.50
2022-09-06T00:54:59.418Z,47.54
2022-09-06T00:59:56.023Z,47.08
2022-09-06T01:04:52.118Z,46.88
2022-09-06T01:10:14.869Z,47.15
2022-09-06T01:15:14.579Z,47.18
2022-09-06T01:20:12.982Z,46.84
2022-09-06T01:25:06.075Z,46.73
2022-09-06T01:30:15.638Z,46.75
2022-09-06T01:35:28.732Z,47.04
2022-09-06T01:40:22.327Z,46.90
2022-09-06T01:45:18.776Z,46.86
2022-09-06T01:50:45.888Z,46.88
2022-09-06T01:55:48.311Z,46.76
2022-09-06T02:01:07.394Z,46.47
2022-09-06T02:06:09.749Z,46.04
2022-09-06T02:11:05.756Z,45.81
2022-09-06T02:16:05.302Z,46.01
2022-09-06T02:21:01.403Z,45.79
2022-09-06T02:25:59.800Z,45.75
2022-09-06T02:31:01.007Z,45.36
2022-09-06T02:35:55.411Z,45.23
2022-09-06T02:40:50.327Z,44.83
2022-09-06T02:45:44.682Z,45.32
2022-09-06T02:50:38.424Z,45.02
2022-09-06T02:55:31.739Z,45.22
2022-09-06T03:00:25.749Z,45.10
2022-09-06T03:05:19.701Z,45.64
2022-09-06T03:10:13.654Z,45.16
2022-09-06T03:15:07.961Z,45.49
2022-09-06T03:20:02.391Z,45.25
2022-09-06T03:24:56.244Z,45.29
2022-09-06T03:29:50.199Z,45.12
2022-09-06T03:34:44.307Z,45.27
2022-09-06T03:39:38.106Z,45.38
2022-09-06T03:44:32.499Z,45.28
2022-09-06T03:49:26.103Z,44.95
2022-09-06T03:54:20.186Z,45.08
2022-09-06T03:59:14.742Z,44.58
2022-09-06T04:04:08.792Z,44.79
2022-09-06T04:09:02.711Z,44.74
2022-09-06T04:13:56.472Z,45.01
2022-09-06T04:18:50.299Z,44.73
2022-09-06T04:23:43.928Z,45.13
2022-09-06T04:28:36.440Z,44.81
2022-09-06T04:33:30.486Z,45.33
2022-09-06T04:38:25.376Z,44.94
2022-09-06T04:43:18.843Z,45.22
2022-09-06T04:48:13.015Z,45.10
2022-09-06T04:53:06.643Z,45.15
2022-09-06T04:58:00.954Z,45.55
2022-09-06T05:02:54.613Z,45.29
2022-09-06T05:07:48.773Z,45.48
2022-09-06T05:12:44.397Z,45.94
2022-09-06T05:17:38.487Z,46.52
2022-09-06T05:22:32.473Z,46.05
2022-09-06T05:27:26.165Z,46.36
2022-09-06T05:32:20.157Z,45.84
2022-09-06T05:37:13.225Z,45.85
2022-09-06T05:42:07.735Z,45.52
2022-09-06T05:47:01.621Z,45.83
2022-09-06T05:51:55.608Z,46.03
2022-09-06T05:56:53.469Z,46.38
2022-09-06T06:01:54.052Z,46.75
2022-09-06T06:06:49.785Z,47.19
2022-09-06T06:11:43.678Z,48.03
2022-09-06T06:16:36.329Z,47.15
2022-09-06T06:21:32.066Z,48.27
2022-09-06T06:26:26.283Z,47.38
2022-09-06T06:31:24.088Z,47.43
2022-09-06T06:36:17.209Z,47.19
2022-09-06T06:41:16.344Z,48.00
2022-09-06T06:46:18.589Z,47.34
2022-09-06T06:51:16.405Z,50.14
2022-09-06T06:56:18.724Z,49.58
2022-09-06T07:01:13.273Z,49.40
2022-09-06T07:11:07.859Z,47.64
2022-09-06T07:16:21.438Z,49.18
2022-09-06T07:21:37.932Z,49.37
2022-09-06T07:26:33.756Z,47.62
2022-09-06T07:36:45.413Z,46.95
2022-09-06T07:41:40.655Z,46.96
2022-09-06T07:46:36.740Z,47.33
2022-09-06T07:51:32.604Z,48.74
2022-09-06T07:56:35.133Z,49.87
2022-09-06T08:01:39.988Z,50.69
2022-09-06T08:11:57.363Z,48.85
2022-09-06T08:16:53.703Z,51.52
2022-09-06T08:21:51.429Z,51.26
2022-09-06T08:26:52.513Z,52.77
2022-09-06T08:31:50.641Z,53.10
2022-09-06T08:36:48.864Z,51.86
2022-09-06T08:41:53.303Z,53.74
2022-09-06T08:47:09.359Z,52.17
2022-09-06T08:52:25.485Z,49.80
2022-09-06T08:58:21.889Z,48.44
2022-09-06T09:03:31.063Z,49.27
2022-09-06T09:08:31.221Z,49.39
2022-09-06T09:14:09.757Z,48.96
2022-09-06T09:19:06.394Z,48.71
2022-09-06T09:24:05.208Z,51.56
2022-09-06T09:29:20.817Z,50.98
2022-09-06T09:34:44.591Z,50.24
2022-09-06T09:39:52.655Z,49.73
2022-09-06T09:44:49.470Z,50.18
2022-09-06T09:49:44.181Z,49.69
2022-09-06T09:54:40.636Z,49.55
2022-09-06T09:59:47.450Z,49.60
2022-09-06T10:04:47.674Z,49.73
2022-09-06T10:09:45.849Z,49.68
2022-09-06T10:15:07.266Z,50.00
2022-09-06T10:20:08.597Z,49.97
2022-09-06T10:25:10.426Z,49.56
2022-09-06T10:30:09.745Z,49.40
2022-09-06T10:35:10.431Z,49.19
2022-09-06T10:40:27.957Z,49.25
2022-09-06T10:45:21.172Z,49.20
2022-09-06T10:50:16.948Z,49.01
2022-09-06T10:55:16.312Z,49.17
2022-09-06T11:00:18.746Z,49.04
2022-09-06T11:10:41.176Z,49.73
2022-09-06T11:15:54.656Z,50.48
2022-09-06T11:20:57.077Z,52.80
2022-09-06T11:26:14.615Z,53.42
2022-09-06T11:36:39.610Z,51.55
2022-09-06T11:41:36.696Z,50.94
2022-09-06T11:46:36.632Z,50.48
2022-09-06T11:51:36.339Z,49.22
2022-09-06T11:56:36.027Z,49.01
2022-09-06T12:01:28.826Z,48.86
2022-09-06T12:06:25.355Z,48.07
2022-09-06T12:11:38.387Z,48.06
2022-09-06T12:16:56.250Z,47.39
2022-09-06T12:21:54.005Z,47.19
2022-09-06T12:26:55.785Z,47.48
2022-09-06T12:31:54.399Z,47.58
2022-09-06T12:37:08.115Z,47.75
2022-09-06T12:42:13.614Z,47.81
2022-09-06T12:47:11.700Z,47.94
2022-09-06T12:52:16.659Z,47.45
2022-09-06T12:57:28.307Z,47.06
2022-09-06T13:02:42.135Z,47.22
2022-09-06T13:07:45.140Z,47.07
2022-09-06T13:12:43.795Z,46.90
2022-09-06T13:17:38.548Z,46.82
2022-09-06T13:22:48.175Z,46.52
2022-09-06T13:27:46.736Z,46.82
2022-09-06T13:32:52.597Z,46.53
2022-09-06T13:37:50.265Z,47.06
2022-09-06T13:42:44.416Z,46.98
2022-09-06T13:47:38.529Z,46.40
2022-09-06T13:52:32.852Z,46.21
2022-09-06T13:57:26.615Z,46.07
2022-09-06T14:02:21.629Z,46.11
2022-09-06T14:07:15.442Z,46.27
2022-09-06T14:12:10.881Z,46.45
2022-09-06T14:17:04.501Z,46.20
2022-09-06T14:21:58.741Z,46.23
2022-09-06T14:26:52.949Z,46.34
2022-09-06T14:31:46.939Z,46.33
2022-09-06T14:36:40.534Z,46.15
2022-09-06T14:41:34.369Z,46.07
2022-09-06T14:46:29.862Z,45.93
2022-09-06T14:51:24.667Z,46.04
2022-09-06T14:56:19.891Z,45.86
2022-09-06T15:01:15.593Z,46.30
2022-09-06T15:06:11.865Z,46.29
2022-09-06T15:11:09.500Z,46.31
2022-09-06T15:16:02.776Z,46.34
2022-09-06T15:20:55.620Z,45.46
2022-09-06T15:25:53.069Z,45.73
2022-09-06T15:30:47.675Z,45.61
2022-09-06T15:35:42.458Z,45.25
2022-09-06T15:40:36.725Z,45.48
2022-09-06T15:45:30.559Z,45.25
2022-09-06T15:50:47.617Z,45.19
2022-09-06T15:55:55.253Z,45.25
2022-09-06T16:00:53.954Z,45.34
2022-09-06T16:11:08.020Z,45.38
2022-09-06T16:16:02.904Z,45.61
2022-09-06T16:20:57.809Z,45.36
2022-09-06T16:25:55.860Z,45.01
2022-09-06T16:30:49.723Z,45.04
2022-09-06T16:35:44.275Z,44.85
2022-09-06T16:40:38.388Z,44.30
2022-09-06T16:45:32.949Z,44.56
2022-09-06T16:50:27.059Z,44.56
2022-09-06T16:55:21.167Z,44.12
2022-09-06T17:00:16.444Z,44.47
2022-09-06T17:05:11.128Z,44.92
2022-09-06T17:10:07.437Z,44.45
2022-09-06T17:15:00.488Z,44.56
2022-09-06T17:19:58.486Z,45.05
2022-09-06T17:24:53.459Z,44.95
2022-09-06T17:29:46.965Z,44.90
2022-09-06T17:34:41.309Z,44.75
2022-09-06T17:39:36.120Z,44.80
2022-09-06T17:44:29.653Z,44.93
2022-09-06T17:49:23.161Z,45.21
2022-09-06T17:54:17.784Z,45.36
2022-09-06T17:59:14.997Z,45.35
2022-09-06T18:04:10.521Z,44.85
2022-09-06T18:09:13.656Z,45.36
2022-09-06T18:14:11.128Z,45.09
2022-09-06T18:19:06.878Z,45.54
2022-09-06T18:24:00.096Z,45.03
2022-09-06T18:28:54.360Z,45.67
2022-09-06T18:33:47.384Z,45.29
2022-09-06T18:38:43.508Z,45.52
2022-09-06T18:43:39.254Z,45.31
2022-09-06T18:48:33.643Z,45.47
2022-09-06T18:53:27.930Z,45.85
2022-09-06T18:58:25.493Z,45.90
2022-09-06T19:03:19.483Z,45.55
2022-09-06T19:08:13.892Z,45.62
2022-09-06T19:13:08.352Z,45.77
2022-09-06T19:18:03.503Z,45.91
2022-09-06T19:22:57.953Z,46.38
2022-09-06T19:27:51.004Z,46.56
2022-09-06T19:32:47.821Z,46.65
2022-09-06T19:37:41.749Z,47.08
2022-09-06T19:42:35.282Z,47.50
2022-09-06T19:47:28.339Z,47.33
2022-09-06T19:52:21.717Z,47.48
2022-09-06T19:57:16.121Z,47.76
2022-09-06T20:02:10.453Z,47.46
2022-09-06T20:07:04.632Z,47.58
2022-09-06T20:11:59.039Z,48.56
2022-09-06T20:16:54.114Z,48.23
2022-09-06T20:21:48.556Z,48.40
2022-09-06T20:26:41.140Z,48.86
2022-09-06T20:31:35.292Z,49.01
2022-09-06T20:36:28.858Z,49.29
2022-09-06T20:41:24.791Z,48.95
2022-09-06T20:46:19.985Z,49.10
2022-09-06T20:51:16.859Z,49.63
2022-09-06T20:56:19.356Z,49.13
2022-09-06T21:01:18.179Z,48.44
2022-09-06T21:06:13.496Z,48.76
2022-09-06T21:11:07.488Z,48.01
2022-09-06T21:16:05.234Z,48.25
2022-09-06T21:21:00.282Z,47.91
2022-09-06T21:25:58.584Z,47.36
2022-09-06T21:31:05.196Z,47.17
2022-09-06T21:36:04.226Z,47.06
2022-09-06T21:40:59.324Z,47.54
2022-09-06T21:45:53.284Z,47.29
2022-09-06T21:50:48.983Z,47.09
2022-09-06T21:55:42.269Z,47.28
2022-09-06T22:00:35.920Z,47.29
2022-09-06T22:05:30.452Z,47.58
2022-09-06T22:10:25.309Z,47.43
2022-09-06T22:15:22.489Z,47.67
2022-09-06T22:20:17.333Z,47.53
2022-09-06T22:25:12.024Z,47.28
2022-09-06T22:30:08.429Z,46.92
2022-09-06T22:35:05.024Z,47.04
2022-09-06T22:39:59.538Z,46.80
2022-09-06T22:44:54.687Z,47.00
2022-09-06T22:49:50.070Z,47.21
2022-09-06T22:54:43.502Z,46.66
2022-09-06T22:59:38.725Z,46.76
2022-09-06T23:04:32.877Z,46.22
2022-09-06T23:09:26.191Z,46.58
2022-09-06T23:14:24.684Z,45.86
2022-09-06T23:19:18.686Z,46.07
2022-09-06T23:24:12.636Z,46.43
2022-09-06T23:29:09.542Z,46.29
2022-09-06T23:34:04.107Z,46.35
2022-09-06T23:38:58.223Z,46.42
2022-09-06T23:43:51.529Z,46.66
2022-09-06T23:48:45.154Z,47.15
2022-09-06T23:53:39.229Z,47.34
2022-09-06T23:58:32.802Z,46.99
